createdAt,value
2018-06-08T00:00:24.607Z,22.30
2018-06-08T00:02:52.049Z,22.30
2018-06-08T00:05:19.498Z,22.30
2018-06-08T00:07:46.981Z,22.30
2018-06-08T00:10:14.510Z,22.40
2018-06-08T00:12:41.975Z,22.30
2018-06-08T00:15:09.461Z,22.30
2018-06-08T00:17:36.963Z,22.40
2018-06-08T00:20:04.781Z,22.40
2018-06-08T00:22:32.323Z,22.40
2018-06-08T00:24:59.749Z,22.40
2018-06-08T00:27:27.235Z,22.40
2018-06-08T00:29:54.724Z,22.40
2018-06-08T00:32:22.156Z,22.40
2018-06-08T00:34:49.669Z,22.40
2018-06-08T00:37:17.101Z,22.40
2018-06-08T00:39:44.599Z,22.40
2018-06-08T00:42:12.261Z,22.40
2018-06-08T00:44:39.702Z,22.40
2018-06-08T00:47:07.155Z,22.40
2018-06-08T00:49:34.746Z,22.40
2018-06-08T00:52:02.217Z,22.40
2018-06-08T00:54:29.727Z,22.40
2018-06-08T00:57:06.123Z,22.30
2018-06-08T00:59:33.565Z,22.30
2018-06-08T01:02:01.216Z,22.30
2018-06-08T01:04:28.833Z,22.20
2018-06-08T01:06:56.397Z,22.20
2018-06-08T01:09:23.949Z,22.10
2018-06-08T01:11:51.430Z,22.10
2018-06-08T01:14:26.071Z,22.00
2018-06-08T01:16:53.622Z,22.00
2018-06-08T01:19:21.192Z,21.90
2018-06-08T01:21:48.698Z,21.90
2018-06-08T01:24:16.411Z,22.00
2018-06-08T01:26:43.937Z,22.00
2018-06-08T01:29:11.450Z,22.00
2018-06-08T01:31:39.119Z,22.00
2018-06-08T01:34:06.610Z,22.00
2018-06-08T01:36:34.090Z,21.90
2018-06-08T01:39:01.600Z,21.90
2018-06-08T01:41:29.115Z,21.90
2018-06-08T01:43:56.574Z,21.90
2018-06-08T01:46:24.093Z,21.90
2018-06-08T01:48:51.543Z,21.90
2018-06-08T01:51:19.054Z,21.90
2018-06-08T01:53:46.574Z,21.90
2018-06-08T01:56:14.056Z,21.90
2018-06-08T01:58:41.548Z,21.90
2018-06-08T02:01:09.085Z,21.90
2018-06-08T02:03:36.589Z,21.90
2018-06-08T02:06:05.263Z,21.90
2018-06-08T02:08:32.703Z,21.80
2018-06-08T02:11:00.173Z,21.70
2018-06-08T02:13:27.698Z,21.60
2018-06-08T02:15:55.170Z,21.30
2018-06-08T02:18:22.709Z,21.20
2018-06-08T02:20:50.204Z,21.20
2018-06-08T02:23:17.699Z,21.20
2018-06-08T02:25:45.250Z,21.30
2018-06-08T02:28:12.725Z,21.20
2018-06-08T02:30:40.235Z,21.10
2018-06-08T02:33:07.733Z,21.00
2018-06-08T02:35:35.210Z,20.90
2018-06-08T02:38:02.853Z,20.90
2018-06-08T02:40:30.606Z,20.90
2018-06-08T02:42:58.123Z,21.00
2018-06-08T02:45:25.626Z,20.80
2018-06-08T02:47:53.035Z,21.10
2018-06-08T02:50:20.487Z,21.20
2018-06-08T02:52:47.978Z,21.20
2018-06-08T02:55:15.500Z,21.10
2018-06-08T02:57:42.937Z,21.00
2018-06-08T03:00:10.438Z,21.00
2018-06-08T03:02:37.973Z,20.90
2018-06-08T03:05:05.421Z,20.60
2018-06-08T03:07:32.874Z,20.70
2018-06-08T03:10:00.503Z,20.70
2018-06-08T03:12:28.028Z,20.50
2018-06-08T03:14:55.475Z,20.40
2018-06-08T03:17:22.985Z,20.40
2018-06-08T03:19:50.446Z,20.40
2018-06-08T03:22:17.904Z,20.30
2018-06-08T03:24:45.380Z,20.40
2018-06-08T03:27:12.863Z,20.40
2018-06-08T03:29:40.426Z,20.30
2018-06-08T03:32:08.008Z,20.20
2018-06-08T03:34:35.535Z,20.20
2018-06-08T03:37:03.001Z,20.20
2018-06-08T03:39:30.574Z,20.20
2018-06-08T03:41:58.103Z,20.20
2018-06-08T03:44:25.599Z,20.10
2018-06-08T03:46:53.199Z,20.10
2018-06-08T03:49:20.689Z,20.10
2018-06-08T03:51:48.206Z,20.10
2018-06-08T03:54:15.646Z,20.10
2018-06-08T03:56:43.149Z,20.00
2018-06-08T04:01:38.040Z,19.90
2018-06-08T04:04:05.536Z,19.90
2018-06-08T04:06:33.122Z,19.90
2018-06-08T04:09:00.669Z,19.90
2018-06-08T04:11:28.255Z,19.90
2018-06-08T04:16:23.257Z,20.00
2018-06-08T04:18:50.734Z,19.90
2018-06-08T04:21:18.223Z,20.00
2018-06-08T04:23:45.794Z,20.00
2018-06-08T04:26:13.368Z,20.10
2018-06-08T04:28:40.971Z,20.00
2018-06-08T04:31:08.498Z,20.00
2018-06-08T04:33:36.035Z,20.10
2018-06-08T04:36:04.295Z,20.20
2018-06-08T04:38:31.820Z,20.10
2018-06-08T04:40:59.439Z,20.20
2018-06-08T04:43:26.949Z,20.30
2018-06-08T04:45:54.468Z,20.40
2018-06-08T04:48:22.139Z,20.40
2018-06-08T04:50:49.659Z,20.30
2018-06-08T04:53:17.147Z,20.30
2018-06-08T04:58:12.468Z,20.40
2018-06-08T05:00:39.914Z,20.50
2018-06-08T05:03:07.419Z,20.50
2018-06-08T05:05:34.901Z,20.40
2018-06-08T05:08:02.563Z,20.30
2018-06-08T05:10:30.065Z,20.30
2018-06-08T05:12:57.675Z,20.30
2018-06-08T05:15:25.189Z,20.40
2018-06-08T05:17:52.805Z,20.50
2018-06-08T05:20:20.436Z,20.40
2018-06-08T05:22:47.939Z,20.50
2018-06-08T05:25:15.547Z,20.60
2018-06-08T05:27:43.147Z,20.70
2018-06-08T05:30:14.743Z,20.70
2018-06-08T05:32:42.435Z,20.70
2018-06-08T05:35:10.049Z,20.70
2018-06-08T05:37:37.659Z,20.60
2018-06-08T05:40:05.232Z,20.60
2018-06-08T05:42:32.792Z,20.60
2018-06-08T05:45:00.270Z,20.70
2018-06-08T05:47:27.766Z,20.70
2018-06-08T05:49:55.285Z,20.70
2018-06-08T05:52:22.784Z,20.80
2018-06-08T05:54:50.276Z,20.90
2018-06-08T05:57:17.734Z,20.90
2018-06-08T05:59:45.198Z,21.00
2018-06-08T06:02:12.740Z,21.00
2018-06-08T06:04:40.249Z,21.10
2018-06-08T06:07:07.754Z,21.10
2018-06-08T06:09:35.221Z,21.10
2018-06-08T06:12:02.856Z,21.10
2018-06-08T06:14:30.490Z,21.00
2018-06-08T06:16:58.045Z,21.00
2018-06-08T06:19:25.606Z,21.10
2018-06-08T06:21:53.181Z,21.20
2018-06-08T06:24:20.701Z,21.20
2018-06-08T06:26:48.152Z,21.40
2018-06-08T06:29:15.775Z,21.20
2018-06-08T06:31:43.363Z,21.20
2018-06-08T06:34:10.941Z,21.20
2018-06-08T06:36:38.445Z,21.20
2018-06-08T06:39:07.380Z,21.20
2018-06-08T06:41:34.934Z,21.30
2018-06-08T06:46:30.055Z,21.40
2018-06-08T06:48:57.622Z,21.40
2018-06-08T06:51:25.345Z,21.40
2018-06-08T06:53:52.938Z,21.40
2018-06-08T06:56:20.555Z,21.50
2018-06-08T06:58:48.099Z,21.40
2018-06-08T07:01:15.651Z,21.40
2018-06-08T07:03:43.290Z,21.40
2018-06-08T07:06:10.859Z,21.40
2018-06-08T07:08:38.447Z,21.30
2018-06-08T07:11:06.010Z,21.20
2018-06-08T07:13:33.595Z,21.20
2018-06-08T07:16:01.150Z,21.20
2018-06-08T07:18:28.734Z,21.30
2018-06-08T07:20:56.186Z,21.30
2018-06-08T07:23:23.705Z,21.10
2018-06-08T07:25:51.150Z,21.20
2018-06-08T07:28:18.636Z,21.20
2018-06-08T07:30:46.385Z,21.20
2018-06-08T07:33:13.833Z,21.20
2018-06-08T07:35:41.350Z,21.20
2018-06-08T07:38:08.805Z,21.20
2018-06-08T07:40:36.380Z,21.20
2018-06-08T07:43:03.950Z,21.10
2018-06-08T07:45:31.542Z,21.10
2018-06-08T07:47:59.036Z,21.00
2018-06-08T07:50:26.438Z,20.90
2018-06-08T07:52:53.940Z,20.90
2018-06-08T07:55:21.462Z,20.90
2018-06-08T08:00:16.480Z,20.80
2018-06-08T08:02:44.085Z,20.70
2018-06-08T08:05:11.738Z,20.70
2018-06-08T08:07:39.295Z,20.60
2018-06-08T08:10:07.060Z,20.50
2018-06-08T08:12:34.506Z,20.40
2018-06-08T08:15:02.000Z,20.30
2018-06-08T08:17:29.864Z,20.10
2018-06-08T08:19:57.346Z,20.10
2018-06-08T08:22:24.998Z,20.10
2018-06-08T08:24:52.531Z,20.00
2018-06-08T08:27:20.075Z,19.80
2018-06-08T08:29:47.634Z,19.80
2018-06-08T08:32:15.255Z,19.70
2018-06-08T08:34:42.777Z,19.70
2018-06-08T08:37:10.353Z,19.80
2018-06-08T08:39:38.098Z,19.80
2018-06-08T08:42:05.736Z,19.70
2018-06-08T08:44:33.314Z,19.70
2018-06-08T08:47:00.848Z,19.70
2018-06-08T08:49:28.335Z,19.70
2018-06-08T08:51:55.972Z,19.70
2018-06-08T08:54:23.522Z,19.60
2018-06-08T08:56:51.077Z,19.70
2018-06-08T08:59:18.474Z,19.60
2018-06-08T09:01:45.979Z,19.60
2018-06-08T09:04:13.507Z,19.70
2018-06-08T09:06:41.006Z,19.60
2018-06-08T09:09:08.532Z,19.60
2018-06-08T09:11:36.046Z,19.60
2018-06-08T09:14:03.573Z,19.70
2018-06-08T09:16:31.053Z,19.60
2018-06-08T09:18:58.591Z,19.70
2018-06-08T09:21:26.070Z,19.70
2018-06-08T09:23:53.572Z,19.70
2018-06-08T09:26:21.089Z,19.70
2018-06-08T09:28:48.679Z,19.70
2018-06-08T09:31:16.175Z,19.70
2018-06-08T09:33:43.664Z,19.70
2018-06-08T09:36:11.945Z,19.80
2018-06-08T09:38:39.391Z,19.70
2018-06-08T09:41:06.843Z,19.70
2018-06-08T09:43:34.299Z,19.70
2018-06-08T09:46:01.883Z,19.70
2018-06-08T09:48:29.419Z,19.80
2018-06-08T09:50:56.920Z,19.80
2018-06-08T09:53:24.349Z,19.80
2018-06-08T09:55:51.829Z,19.80
2018-06-08T09:58:19.375Z,19.70
2018-06-08T10:00:46.796Z,19.70
2018-06-08T10:03:14.300Z,19.70
2018-06-08T10:05:41.844Z,19.80
2018-06-08T10:08:09.282Z,19.90
2018-06-08T10:10:36.860Z,20.00
2018-06-08T10:13:04.508Z,20.00
2018-06-08T10:15:31.943Z,20.00
2018-06-08T10:17:59.441Z,20.00
2018-06-08T10:20:27.237Z,20.00
2018-06-08T10:22:54.717Z,20.20
2018-06-08T10:25:22.242Z,20.30
2018-06-08T10:27:49.707Z,20.30
2018-06-08T10:30:17.312Z,20.20
2018-06-08T10:32:44.873Z,20.20
2018-06-08T10:35:12.399Z,20.10
2018-06-08T10:37:40.286Z,20.10
2018-06-08T10:40:07.965Z,20.10
2018-06-08T10:42:35.474Z,20.00
2018-06-08T10:45:03.034Z,20.00
2018-06-08T10:47:30.627Z,20.00
2018-06-08T10:49:58.190Z,20.00
2018-06-08T10:52:25.709Z,20.00
2018-06-08T10:54:55.150Z,20.10
2018-06-08T10:57:22.855Z,20.00
2018-06-08T10:59:50.950Z,20.00
2018-06-08T11:02:18.700Z,19.90
2018-06-08T11:04:46.274Z,19.90
2018-06-08T11:07:13.836Z,19.90
2018-06-08T11:09:41.450Z,19.90
2018-06-08T11:12:09.053Z,20.00
2018-06-08T11:14:36.626Z,20.00
2018-06-08T11:17:04.123Z,20.00
2018-06-08T11:19:31.608Z,19.90
2018-06-08T11:21:59.138Z,19.90
2018-06-08T11:24:26.810Z,20.00
2018-06-08T11:26:54.411Z,20.00
2018-06-08T11:29:21.862Z,19.70
2018-06-08T11:31:49.397Z,20.10
2018-06-08T11:34:16.936Z,20.20
2018-06-08T11:36:44.459Z,20.10
2018-06-08T11:39:12.146Z,20.20
2018-06-08T11:41:39.566Z,20.30
2018-06-08T11:44:07.059Z,20.40
2018-06-08T11:46:34.582Z,20.40
2018-06-08T11:49:02.097Z,20.50
2018-06-08T11:51:29.579Z,20.50
2018-06-08T11:53:57.081Z,20.50
2018-06-08T11:56:24.677Z,20.50
2018-06-08T11:58:52.265Z,20.50
2018-06-08T12:01:19.806Z,20.60
2018-06-08T12:03:47.282Z,20.60
2018-06-08T12:06:14.800Z,20.70
2018-06-08T12:08:42.286Z,20.70
2018-06-08T12:11:09.930Z,20.60
2018-06-08T12:13:37.397Z,20.50
2018-06-08T12:16:05.010Z,20.60
2018-06-08T12:18:32.579Z,20.60
2018-06-08T12:21:00.040Z,20.70
2018-06-08T12:23:27.579Z,20.70
2018-06-08T12:25:55.075Z,20.70
2018-06-08T12:28:22.661Z,20.70
2018-06-08T12:30:50.375Z,20.60
2018-06-08T12:33:17.874Z,20.60
2018-06-08T12:35:45.487Z,20.70
2018-06-08T12:38:13.073Z,20.70
2018-06-08T12:40:40.609Z,20.70
2018-06-08T12:43:08.090Z,20.70
2018-06-08T12:45:35.573Z,20.70
2018-06-08T12:48:03.155Z,20.80
2018-06-08T12:50:30.882Z,20.80
2018-06-08T12:52:58.510Z,20.80
2018-06-08T12:55:25.966Z,20.70
2018-06-08T12:57:53.818Z,20.90
2018-06-08T13:00:21.368Z,20.80
2018-06-08T13:02:48.961Z,20.80
2018-06-08T13:05:16.475Z,20.80
2018-06-08T13:07:43.998Z,20.70
2018-06-08T13:10:11.546Z,20.60
2018-06-08T13:12:39.050Z,20.60
2018-06-08T13:15:06.691Z,20.70
2018-06-08T13:17:34.306Z,20.70
2018-06-08T13:20:01.815Z,20.70
2018-06-08T13:22:29.341Z,20.90
2018-06-08T13:24:56.860Z,21.10
2018-06-08T13:27:24.378Z,21.20
2018-06-08T13:29:52.159Z,21.20
2018-06-08T13:32:19.630Z,21.50
2018-06-08T13:34:47.299Z,21.50
2018-06-08T13:37:14.832Z,21.50
2018-06-08T13:39:42.331Z,21.50
2018-06-08T13:42:09.803Z,21.50
2018-06-08T13:44:37.308Z,21.50
2018-06-08T13:47:04.902Z,21.50
2018-06-08T13:49:32.357Z,21.50
2018-06-08T13:52:00.026Z,21.60
2018-06-08T13:54:27.607Z,21.60
2018-06-08T13:56:55.149Z,21.80
2018-06-08T13:59:22.682Z,21.80
2018-06-08T14:01:50.116Z,22.00
2018-06-08T14:04:17.670Z,22.70
2018-06-08T14:06:45.283Z,23.30
2018-06-08T14:09:12.763Z,23.40
2018-06-08T14:11:40.172Z,23.30
2018-06-08T14:14:07.776Z,23.00
2018-06-08T14:16:35.411Z,22.90
2018-06-08T14:19:02.955Z,22.90
2018-06-08T14:21:30.434Z,22.90
2018-06-08T14:23:57.947Z,22.80
2018-06-08T14:26:25.484Z,22.80
2018-06-08T14:28:52.989Z,22.80
2018-06-08T14:31:20.492Z,22.80
2018-06-08T14:33:48.018Z,22.90
2018-06-08T14:36:15.743Z,23.00
2018-06-08T14:38:44.305Z,23.10
2018-06-08T14:41:11.864Z,23.20
2018-06-08T14:43:39.306Z,23.30
2018-06-08T14:46:06.884Z,23.50
2018-06-08T14:48:34.330Z,23.70
2018-06-08T14:51:01.861Z,23.70
2018-06-08T14:53:29.412Z,23.80
2018-06-08T14:55:57.101Z,23.90
2018-06-08T14:58:24.815Z,24.00
2018-06-08T15:00:52.347Z,23.90
2018-06-08T15:03:19.803Z,23.90
2018-06-08T15:05:47.348Z,24.20
2018-06-08T15:08:14.791Z,24.70
2018-06-08T15:10:42.380Z,25.70
2018-06-08T15:13:09.995Z,27.10
2018-06-08T15:15:37.569Z,27.80
2018-06-08T15:18:05.146Z,27.60
2018-06-08T15:20:32.835Z,27.20
2018-06-08T15:23:00.466Z,26.70
2018-06-08T15:25:27.946Z,26.20
2018-06-08T15:27:55.626Z,26.70
2018-06-08T15:30:23.105Z,26.60
2018-06-08T15:32:50.733Z,26.30
2018-06-08T15:35:18.209Z,26.10
2018-06-08T15:37:45.654Z,25.90
2018-06-08T15:40:13.306Z,25.70
2018-06-08T15:42:40.839Z,25.80
2018-06-08T15:45:08.490Z,25.90
2018-06-08T15:47:36.103Z,25.90
2018-06-08T15:50:03.732Z,25.70
2018-06-08T15:52:31.219Z,25.60
2018-06-08T15:54:58.754Z,25.90
2018-06-08T15:57:26.251Z,27.00
2018-06-08T15:59:53.744Z,28.20
2018-06-08T16:02:21.231Z,29.20
2018-06-08T16:04:48.794Z,29.60
2018-06-08T16:07:16.356Z,29.50
2018-06-08T16:09:44.031Z,28.90
2018-06-08T16:12:11.600Z,28.30
2018-06-08T16:14:39.217Z,28.10
2018-06-08T16:17:06.787Z,27.80
2018-06-08T16:19:34.287Z,27.40
2018-06-08T16:22:01.731Z,26.80
2018-06-08T16:24:29.378Z,26.50
2018-06-08T16:26:56.905Z,26.30
2018-06-08T16:29:24.410Z,26.30
2018-06-08T16:31:51.876Z,26.20
2018-06-08T16:34:19.378Z,26.20
2018-06-08T16:36:46.963Z,26.30
2018-06-08T16:39:14.507Z,26.50
2018-06-08T16:41:42.127Z,26.50
2018-06-08T16:44:09.651Z,26.40
2018-06-08T16:46:37.221Z,26.20
2018-06-08T16:49:04.663Z,26.10
2018-06-08T16:51:32.529Z,26.10
2018-06-08T16:54:00.148Z,26.20
2018-06-08T16:56:27.676Z,26.50
2018-06-08T16:58:55.189Z,26.40
2018-06-08T17:01:22.873Z,26.40
2018-06-08T17:03:50.421Z,26.40
2018-06-08T17:06:17.983Z,26.50
2018-06-08T17:08:45.551Z,26.50
2018-06-08T17:13:40.581Z,26.30
2018-06-08T17:16:08.039Z,26.20
2018-06-08T17:18:35.743Z,26.00
2018-06-08T17:21:03.323Z,25.70
2018-06-08T17:23:30.842Z,25.50
2018-06-08T17:26:04.626Z,25.30
2018-06-08T17:28:32.354Z,25.30
2018-06-08T17:30:59.923Z,25.30
2018-06-08T17:33:27.467Z,25.30
2018-06-08T17:35:54.939Z,25.20
2018-06-08T17:38:22.446Z,25.20
2018-06-08T17:40:49.934Z,25.00
2018-06-08T17:43:17.575Z,25.00
2018-06-08T17:45:45.108Z,24.90
2018-06-08T17:48:12.650Z,24.80
2018-06-08T17:50:40.175Z,24.80
2018-06-08T17:53:07.749Z,24.70
2018-06-08T17:55:35.241Z,24.50
2018-06-08T17:58:02.801Z,24.30
2018-06-08T18:00:30.416Z,24.30
2018-06-08T18:02:57.941Z,24.20
2018-06-08T18:05:25.421Z,24.10
2018-06-08T18:07:52.912Z,24.10
2018-06-08T18:10:20.401Z,24.10
2018-06-08T18:12:47.901Z,24.10
2018-06-08T18:15:15.395Z,24.00
2018-06-08T18:17:42.944Z,23.90
2018-06-08T18:20:10.408Z,23.70
2018-06-08T18:22:37.949Z,23.60
2018-06-08T18:25:05.383Z,23.50
2018-06-08T18:27:32.915Z,23.50
2018-06-08T18:30:00.697Z,23.40
2018-06-08T18:32:28.231Z,23.30
2018-06-08T18:34:55.655Z,23.30
2018-06-08T18:37:23.211Z,23.30
2018-06-08T18:39:50.764Z,23.50
2018-06-08T18:42:18.286Z,23.50
2018-06-08T18:47:13.474Z,23.50
2018-06-08T18:49:41.000Z,23.50
2018-06-08T18:52:08.537Z,23.40
2018-06-08T18:54:36.143Z,23.30
2018-06-08T18:57:03.824Z,23.30
2018-06-08T18:59:31.526Z,23.10
2018-06-08T19:01:59.036Z,23.00
2018-06-08T19:04:26.556Z,22.90
2018-06-08T19:06:54.127Z,22.80
2018-06-08T19:09:21.606Z,22.80
2018-06-08T19:11:49.042Z,22.70
2018-06-08T19:14:16.504Z,22.60
2018-06-08T19:16:45.159Z,22.60
2018-06-08T19:21:40.198Z,22.50
2018-06-08T19:24:07.812Z,22.50
2018-06-08T19:26:35.381Z,22.50
2018-06-08T19:29:02.966Z,22.50
2018-06-08T19:31:30.646Z,22.50
2018-06-08T19:33:58.214Z,22.40
2018-06-08T19:36:25.733Z,22.20
2018-06-08T19:38:53.312Z,22.20
2018-06-08T19:41:20.957Z,22.10
2018-06-08T19:43:48.467Z,22.00
2018-06-08T19:46:15.946Z,22.00
2018-06-08T19:48:43.412Z,22.00
2018-06-08T19:51:10.963Z,22.00
2018-06-08T19:53:38.552Z,21.90
2018-06-08T19:56:06.257Z,21.90
2018-06-08T19:58:33.814Z,21.90
2018-06-08T20:01:02.094Z,21.90
2018-06-08T20:03:30.859Z,21.90
2018-06-08T20:05:58.494Z,21.90
2018-06-08T20:08:25.962Z,21.80
2018-06-08T20:10:53.585Z,21.80
2018-06-08T20:13:21.158Z,21.90
2018-06-08T20:15:49.740Z,21.80
2018-06-08T20:18:17.266Z,21.80
2018-06-08T20:20:44.885Z,21.80
2018-06-08T20:23:12.444Z,21.80
2018-06-08T20:25:39.975Z,21.70
2018-06-08T20:28:07.453Z,21.70
2018-06-08T20:30:34.999Z,21.60
2018-06-08T20:33:02.597Z,21.60
2018-06-08T20:35:30.096Z,21.60
2018-06-08T20:37:57.746Z,21.60
2018-06-08T20:40:25.217Z,21.60
2018-06-08T20:42:52.697Z,21.70
2018-06-08T20:45:20.196Z,21.60
2018-06-08T20:47:47.851Z,21.60
2018-06-08T20:50:15.511Z,21.60
2018-06-08T20:52:43.024Z,21.60
2018-06-08T20:55:10.613Z,21.50
2018-06-08T20:57:48.338Z,21.50
2018-06-08T21:00:15.846Z,21.50
2018-06-08T21:02:43.460Z,21.40
2018-06-08T21:05:11.040Z,21.40
2018-06-08T21:07:38.643Z,21.50
2018-06-08T21:10:06.281Z,21.50
2018-06-08T21:12:33.805Z,21.50
2018-06-08T21:15:01.344Z,21.50
2018-06-08T21:17:28.808Z,21.50
2018-06-08T21:19:56.331Z,21.60
2018-06-08T21:22:23.936Z,21.60
2018-06-08T21:25:01.979Z,21.60
2018-06-08T21:27:29.540Z,21.70
2018-06-08T21:29:57.071Z,21.60
2018-06-08T21:32:24.698Z,21.60
2018-06-08T21:34:52.181Z,21.60
2018-06-08T21:37:19.822Z,21.60
2018-06-08T21:39:47.477Z,21.60
2018-06-08T21:42:14.973Z,21.60
2018-06-08T21:44:42.506Z,21.60
2018-06-08T21:47:10.009Z,21.60
2018-06-08T21:49:37.670Z,21.60
2018-06-08T21:52:05.810Z,21.50
2018-06-08T21:54:33.274Z,21.90
2018-06-08T21:57:00.771Z,21.60
2018-06-08T21:59:28.303Z,21.50
2018-06-08T22:01:55.780Z,21.60
2018-06-08T22:04:23.242Z,21.60
2018-06-08T22:06:50.774Z,21.40
2018-06-08T22:09:18.576Z,21.30
2018-06-08T22:11:46.268Z,21.30
2018-06-08T22:14:13.759Z,21.20
2018-06-08T22:16:41.261Z,21.10
2018-06-08T22:19:08.790Z,21.10
2018-06-08T22:21:36.283Z,20.60
2018-06-08T22:24:04.068Z,20.90
2018-06-08T22:26:31.545Z,20.90
2018-06-08T22:28:59.035Z,20.80
2018-06-08T22:31:26.529Z,20.70
2018-06-08T22:33:53.984Z,20.60
2018-06-08T22:36:21.519Z,20.50
2018-06-08T22:38:49.008Z,20.40
2018-06-08T22:41:16.482Z,20.40
2018-06-08T22:43:43.997Z,20.30
2018-06-08T22:46:11.506Z,20.20
2018-06-08T22:48:39.064Z,20.20
2018-06-08T22:51:06.583Z,20.20
2018-06-08T22:53:34.091Z,20.20
2018-06-08T22:56:01.590Z,20.20
2018-06-08T22:58:29.204Z,20.10
2018-06-08T23:00:56.755Z,20.10
2018-06-08T23:03:24.220Z,20.10
2018-06-08T23:05:51.682Z,20.00
2018-06-08T23:08:19.213Z,20.10
2018-06-08T23:10:46.727Z,20.10
2018-06-08T23:13:14.356Z,20.20
2018-06-08T23:15:41.894Z,20.30
2018-06-08T23:18:09.487Z,20.30
2018-06-08T23:20:37.032Z,20.30
2018-06-08T23:23:10.680Z,20.30
2018-06-08T23:25:38.254Z,20.40
2018-06-08T23:28:05.799Z,20.30
2018-06-08T23:30:33.331Z,20.30
2018-06-08T23:33:02.914Z,20.30
2018-06-08T23:35:30.338Z,20.30
2018-06-08T23:37:57.902Z,20.30
2018-06-08T23:40:25.392Z,20.30
2018-06-08T23:42:52.878Z,20.30
2018-06-08T23:45:20.530Z,20.30
2018-06-08T23:47:48.011Z,20.30
2018-06-08T23:50:15.555Z,20.20
2018-06-08T23:52:43.058Z,20.30
2018-06-08T23:55:10.614Z,20.20
2018-06-08T23:57:38.106Z,20.10
